Pulau Tioman — 3EYO9 — position and weather

sailwx.info

Track history (hours):
 
Tides and Currents Weather Stations Pressure Air Temp Water Temp Dewpoint Dewpoint Depression Visibility Wind Speed Wind Dir Waves Ship Positions

Pulau Tioman

Last reported at 2014-Aug-28 14:30 UTC. Time now 2014-Sep-02 21:28 UTC.
Position N 35°21' E 140°43'.

Length 120 m; draft 5.7 m.

Type: Cargo ship. MMSI: 356613000.

Date/timePositionNaut miles runAvg speedWind from/ knotsBaromVisibWave heightAir tempDewpointWater temp
2014-Aug-28 14:30N 35°21' E 140°43'1212.6
2014-Aug-28 13:32N 35°11' E 140°34'1612.4
2014-Aug-28 12:14N 35°01' E 140°19'912.8
2014-Aug-28 11:33N 34°57' E 140°10'1212.4
2014-Aug-28 10:33N 34°50' E 139°57'1211.9
2014-Aug-28 09:34N 34°55' E 139°44'1313.4
2014-Aug-28 08:33N 35°08' E 139°45'1212.1
2014-Aug-28 07:33N 35°20' E 139°43'7 7.2
2014-Aug-28 06:32N 35°28' E 139°41'0 0.0
2014-Aug-28 05:32N 35°28' E 139°41'0 0.0
2014-Aug-28 04:32N 35°28' E 139°41'0 0.0
2014-Aug-28 03:26N 35°28' E 139°41'0 0.0
2014-Aug-28 02:32N 35°28' E 139°41'0 0.0
2014-Aug-28 01:32N 35°28' E 139°41'0 0.0
2014-Aug-28 00:32N 35°28' E 139°41'2 2.0
2014-Aug-27 23:33N 35°26' E 139°42'0 0.3
2014-Aug-27 22:32N 35°26' E 139°42'0 0.0
2014-Aug-27 21:32N 35°26' E 139°42'0 0.0
2014-Aug-27 20:32N 35°26' E 139°42'0 0.1
2014-Aug-27 19:32N 35°26' E 139°42'0 0.0
2014-Aug-27 18:32N 35°26' E 139°42'0 0.0
2014-Aug-27 17:32N 35°26' E 139°42'0 0.1
2014-Aug-27 16:32N 35°26' E 139°42'0 0.0
2014-Aug-27 15:29N 35°26' E 139°42'0 0.0
2014-Aug-27 14:32N 35°26' E 139°42'0 0.0
2014-Aug-27 13:32N 35°26' E 139°42'0 0.0
2014-Aug-27 12:32N 35°26' E 139°42'0 0.0
2014-Aug-27 11:32N 35°26' E 139°42'0 0.0
2014-Aug-27 10:32N 35°26' E 139°42'0 0.0
2014-Aug-27 09:32N 35°26' E 139°42'0 0.0
2014-Aug-27 08:32N 35°26' E 139°42'0 0.0
2014-Aug-27 07:32N 35°26' E 139°42'0 0.0
2014-Aug-27 06:32N 35°26' E 139°42'0 0.0
2014-Aug-27 05:32N 35°26' E 139°42'0 0.0
2014-Aug-27 04:32N 35°26' E 139°42'0 0.0
2014-Aug-27 03:32N 35°26' E 139°42'0 0.0
2014-Aug-27 02:32N 35°26' E 139°42'0 0.1
2014-Aug-27 01:32N 35°26' E 139°42'0 0.0
2014-Aug-27 00:32N 35°26' E 139°42'1 0.9
2014-Aug-26 23:33N 35°25' E 139°42'1010.4
2014-Aug-26 22:33N 35°15' E 139°47'1211.9
2014-Aug-26 21:33N 35°03' E 139°44'1312.6
2014-Aug-26 20:33N 34°51' E 139°43'1312.1
2014-Aug-26 19:29N 34°39' E 139°48'6310.7
2014-Aug-26 13:32N 34°29' E 138°32'180 6.2
2014-Aug-25 08:32N 33°56' E 134°58'1313.3
2014-Aug-25 07:33N 34°10' E 134°58'1313.5
2014-Aug-25 06:33N 34°23' E 135°02'1414.2
2014-Aug-25 05:33N 34°33' E 135°14'8 8.1
2014-Aug-25 04:31N 34°41' E 135°15'0 0.0
2014-Aug-25 03:31N 34°41' E 135°15'0 0.0
2014-Aug-25 02:25N 34°41' E 135°15'0 0.0
2014-Aug-25 01:25N 34°41' E 135°15'0 0.0
2014-Aug-25 00:31N 34°41' E 135°15'0 0.0
2014-Aug-24 23:31N 34°41' E 135°15'0 0.0
2014-Aug-24 22:31N 34°41' E 135°15'0 0.0
2014-Aug-24 21:31N 34°41' E 135°15'0 0.0
2014-Aug-24 20:25N 34°41' E 135°15'0 0.0
2014-Aug-24 19:31N 34°41' E 135°15'0 0.0
2014-Aug-24 18:25N 34°41' E 135°15'0 0.0
2014-Aug-24 17:31N 34°41' E 135°15'0 0.0
2014-Aug-24 16:31N 34°41' E 135°15'0 0.0
2014-Aug-24 15:31N 34°41' E 135°15'0 0.0
2014-Aug-24 14:31N 34°41' E 135°15'0 0.0
2014-Aug-24 13:31N 34°41' E 135°15'0 0.0
2014-Aug-24 12:31N 34°41' E 135°15'0 0.0
2014-Aug-24 11:31N 34°41' E 135°15'0 0.0
2014-Aug-24 10:31N 34°41' E 135°15'0 0.0
2014-Aug-24 09:25N 34°41' E 135°15'0 0.0
2014-Aug-24 08:31N 34°41' E 135°15'0 0.0
2014-Aug-24 07:19N 34°41' E 135°15'0 0.0
2014-Aug-24 06:25N 34°41' E 135°15'0 0.0
2014-Aug-24 05:19N 34°41' E 135°15'0 0.0
2014-Aug-24 04:31N 34°41' E 135°15'0 0.0
2014-Aug-24 03:25N 34°41' E 135°15'0 0.0
2014-Aug-24 02:31N 34°41' E 135°15'0 0.0
2014-Aug-24 01:31N 34°41' E 135°15'0 0.3
2014-Aug-24 00:33N 34°41' E 135°15'3 3.2
2014-Aug-23 23:33N 34°39' E 135°18'0 0.0
2014-Aug-23 22:29N 34°39' E 135°18'0 0.0
2014-Aug-23 21:29N 34°39' E 135°18'0 0.0
2014-Aug-23 20:30N 34°39' E 135°18'0 0.0
2014-Aug-23 19:30N 34°39' E 135°18'0 0.0
2014-Aug-23 03:29N 34°39' E 135°18'0 0.0
2014-Aug-23 02:29N 34°39' E 135°18'0 0.0
2014-Aug-23 01:29N 34°39' E 135°18'0 0.0
2014-Aug-23 00:29N 34°39' E 135°18'0 0.0
2014-Aug-22 23:29N 34°39' E 135°18'0 0.0
2014-Aug-22 22:23N 34°39' E 135°18'0 0.0
2014-Aug-22 21:23N 34°39' E 135°18'0 0.0
2014-Aug-22 20:29N 34°39' E 135°18'0 0.0
2014-Aug-22 19:29N 34°39' E 135°18'0 0.0
2014-Aug-22 18:29N 34°39' E 135°18'0 0.0
2014-Aug-22 17:29N 34°39' E 135°18'0 0.0
2014-Aug-22 16:29N 34°39' E 135°18'0 0.0
2014-Aug-22 15:29N 34°39' E 135°18'0 0.0
2014-Aug-22 14:29N 34°39' E 135°18'0 0.0
2014-Aug-22 13:29N 34°39' E 135°18'0 0.0
2014-Aug-22 12:29N 34°39' E 135°18'0 0.0
2014-Aug-22 11:29N 34°39' E 135°18'0 0.0
2014-Aug-22 10:29N 34°39' E 135°18'0 0.1
2014-Aug-22 09:29N 34°39' E 135°18'0 0.1
2014-Aug-22 08:29N 34°39' E 135°18'0 0.0
2014-Aug-22 07:29N 34°39' E 135°18'0 0.1
2014-Aug-22 06:29N 34°39' E 135°18'0 0.1
2014-Aug-22 05:29N 34°39' E 135°18'0 0.0
2014-Aug-22 04:29N 34°39' E 135°18'0 0.0
2014-Aug-22 03:29N 34°39' E 135°18'0 0.0
2014-Aug-22 02:29N 34°39' E 135°18'0 0.1
2014-Aug-22 01:23N 34°39' E 135°18'0 0.1
2014-Aug-22 00:29N 34°39' E 135°18'0 0.0
2014-Aug-21 23:29N 34°39' E 135°18'0 0.1
2014-Aug-21 22:29N 34°39' E 135°18'4 4.6
2014-Aug-21 21:33N 34°35' E 135°15'6 6.1
2014-Aug-21 20:33N 34°32' E 135°09'8 8.3
2014-Aug-21 19:33N 34°37' E 135°01'11913.0
2014-Aug-21 10:23N 33°59' E 132°44'  
Track history (hours):
 
Tides and Currents Weather Stations Pressure Air Temp Water Temp Dewpoint Dewpoint Depression Visibility Wind Speed Wind Dir Waves Ship Positions

Pulau Tioman

Last reported at 2014-Aug-28 14:30 UTC. Time now 2014-Sep-02 21:28 UTC.
Position N 35°21' E 140°43'.

Length 120 m; draft 5.7 m.

Type: Cargo ship. MMSI: 356613000.

Date/timePositionNaut miles runAvg speedWind from/ knotsBaromVisibWave heightAir tempDewpointWater temp
2014-Aug-28 14:30N 35°21' E 140°43'1212.6
2014-Aug-28 13:32N 35°11' E 140°34'1612.4
2014-Aug-28 12:14N 35°01' E 140°19'912.8
2014-Aug-28 11:33N 34°57' E 140°10'1212.4
2014-Aug-28 10:33N 34°50' E 139°57'1211.9
2014-Aug-28 09:34N 34°55' E 139°44'1313.4
2014-Aug-28 08:33N 35°08' E 139°45'1212.1
2014-Aug-28 07:33N 35°20' E 139°43'7 7.2
2014-Aug-28 06:32N 35°28' E 139°41'0 0.0
2014-Aug-28 05:32N 35°28' E 139°41'0 0.0
2014-Aug-28 04:32N 35°28' E 139°41'0 0.0
2014-Aug-28 03:26N 35°28' E 139°41'0 0.0
2014-Aug-28 02:32N 35°28' E 139°41'0 0.0
2014-Aug-28 01:32N 35°28' E 139°41'0 0.0
2014-Aug-28 00:32N 35°28' E 139°41'2 2.0
2014-Aug-27 23:33N 35°26' E 139°42'0 0.3
2014-Aug-27 22:32N 35°26' E 139°42'0 0.0
2014-Aug-27 21:32N 35°26' E 139°42'0 0.0
2014-Aug-27 20:32N 35°26' E 139°42'0 0.1
2014-Aug-27 19:32N 35°26' E 139°42'0 0.0
2014-Aug-27 18:32N 35°26' E 139°42'0 0.0
2014-Aug-27 17:32N 35°26' E 139°42'0 0.1
2014-Aug-27 16:32N 35°26' E 139°42'0 0.0
2014-Aug-27 15:29N 35°26' E 139°42'0 0.0
2014-Aug-27 14:32N 35°26' E 139°42'0 0.0
2014-Aug-27 13:32N 35°26' E 139°42'0 0.0
2014-Aug-27 12:32N 35°26' E 139°42'0 0.0
2014-Aug-27 11:32N 35°26' E 139°42'0 0.0
2014-Aug-27 10:32N 35°26' E 139°42'0 0.0
2014-Aug-27 09:32N 35°26' E 139°42'0 0.0
2014-Aug-27 08:32N 35°26' E 139°42'0 0.0
2014-Aug-27 07:32N 35°26' E 139°42'0 0.0
2014-Aug-27 06:32N 35°26' E 139°42'0 0.0
2014-Aug-27 05:32N 35°26' E 139°42'0 0.0
2014-Aug-27 04:32N 35°26' E 139°42'0 0.0
2014-Aug-27 03:32N 35°26' E 139°42'0 0.0
2014-Aug-27 02:32N 35°26' E 139°42'0 0.1
2014-Aug-27 01:32N 35°26' E 139°42'0 0.0
2014-Aug-27 00:32N 35°26' E 139°42'1 0.9
2014-Aug-26 23:33N 35°25' E 139°42'1010.4
2014-Aug-26 22:33N 35°15' E 139°47'1211.9
2014-Aug-26 21:33N 35°03' E 139°44'1312.6
2014-Aug-26 20:33N 34°51' E 139°43'1312.1
2014-Aug-26 19:29N 34°39' E 139°48'6310.7
2014-Aug-26 13:32N 34°29' E 138°32'180 6.2
2014-Aug-25 08:32N 33°56' E 134°58'1313.3
2014-Aug-25 07:33N 34°10' E 134°58'1313.5
2014-Aug-25 06:33N 34°23' E 135°02'1414.2
2014-Aug-25 05:33N 34°33' E 135°14'8 8.1
2014-Aug-25 04:31N 34°41' E 135°15'0 0.0
2014-Aug-25 03:31N 34°41' E 135°15'0 0.0
2014-Aug-25 02:25N 34°41' E 135°15'0 0.0
2014-Aug-25 01:25N 34°41' E 135°15'0 0.0
2014-Aug-25 00:31N 34°41' E 135°15'0 0.0
2014-Aug-24 23:31N 34°41' E 135°15'0 0.0
2014-Aug-24 22:31N 34°41' E 135°15'0 0.0
2014-Aug-24 21:31N 34°41' E 135°15'0 0.0
2014-Aug-24 20:25N 34°41' E 135°15'0 0.0
2014-Aug-24 19:31N 34°41' E 135°15'0 0.0
2014-Aug-24 18:25N 34°41' E 135°15'0 0.0
2014-Aug-24 17:31N 34°41' E 135°15'0 0.0
2014-Aug-24 16:31N 34°41' E 135°15'0 0.0
2014-Aug-24 15:31N 34°41' E 135°15'0 0.0
2014-Aug-24 14:31N 34°41' E 135°15'0 0.0
2014-Aug-24 13:31N 34°41' E 135°15'0 0.0
2014-Aug-24 12:31N 34°41' E 135°15'0 0.0
2014-Aug-24 11:31N 34°41' E 135°15'0 0.0
2014-Aug-24 10:31N 34°41' E 135°15'0 0.0
2014-Aug-24 09:25N 34°41' E 135°15'0 0.0
2014-Aug-24 08:31N 34°41' E 135°15'0 0.0
2014-Aug-24 07:19N 34°41' E 135°15'0 0.0
2014-Aug-24 06:25N 34°41' E 135°15'0 0.0
2014-Aug-24 05:19N 34°41' E 135°15'0 0.0
2014-Aug-24 04:31N 34°41' E 135°15'0 0.0
2014-Aug-24 03:25N 34°41' E 135°15'0 0.0
2014-Aug-24 02:31N 34°41' E 135°15'0 0.0
2014-Aug-24 01:31N 34°41' E 135°15'0 0.3
2014-Aug-24 00:33N 34°41' E 135°15'3 3.2
2014-Aug-23 23:33N 34°39' E 135°18'0 0.0
2014-Aug-23 22:29N 34°39' E 135°18'0 0.0
2014-Aug-23 21:29N 34°39' E 135°18'0 0.0
2014-Aug-23 20:30N 34°39' E 135°18'0 0.0
2014-Aug-23 19:30N 34°39' E 135°18'0 0.0
2014-Aug-23 03:29N 34°39' E 135°18'0 0.0
2014-Aug-23 02:29N 34°39' E 135°18'0 0.0
2014-Aug-23 01:29N 34°39' E 135°18'0 0.0
2014-Aug-23 00:29N 34°39' E 135°18'0 0.0
2014-Aug-22 23:29N 34°39' E 135°18'0 0.0
2014-Aug-22 22:23N 34°39' E 135°18'0 0.0
2014-Aug-22 21:23N 34°39' E 135°18'0 0.0
2014-Aug-22 20:29N 34°39' E 135°18'0 0.0
2014-Aug-22 19:29N 34°39' E 135°18'0 0.0
2014-Aug-22 18:29N 34°39' E 135°18'0 0.0
2014-Aug-22 17:29N 34°39' E 135°18'0 0.0
2014-Aug-22 16:29N 34°39' E 135°18'0 0.0
2014-Aug-22 15:29N 34°39' E 135°18'0 0.0
2014-Aug-22 14:29N 34°39' E 135°18'0 0.0
2014-Aug-22 13:29N 34°39' E 135°18'0 0.0
2014-Aug-22 12:29N 34°39' E 135°18'0 0.0
2014-Aug-22 11:29N 34°39' E 135°18'0 0.0
2014-Aug-22 10:29N 34°39' E 135°18'0 0.1
2014-Aug-22 09:29N 34°39' E 135°18'0 0.1
2014-Aug-22 08:29N 34°39' E 135°18'0 0.0
2014-Aug-22 07:29N 34°39' E 135°18'0 0.1
2014-Aug-22 06:29N 34°39' E 135°18'0 0.1
2014-Aug-22 05:29N 34°39' E 135°18'0 0.0
2014-Aug-22 04:29N 34°39' E 135°18'0 0.0
2014-Aug-22 03:29N 34°39' E 135°18'0 0.0
2014-Aug-22 02:29N 34°39' E 135°18'0 0.1
2014-Aug-22 01:23N 34°39' E 135°18'0 0.1
2014-Aug-22 00:29N 34°39' E 135°18'0 0.0
2014-Aug-21 23:29N 34°39' E 135°18'0 0.1
2014-Aug-21 22:29N 34°39' E 135°18'4 4.6
2014-Aug-21 21:33N 34°35' E 135°15'6 6.1
2014-Aug-21 20:33N 34°32' E 135°09'8 8.3
2014-Aug-21 19:33N 34°37' E 135°01'11913.0
2014-Aug-21 10:23N 33°59' E 132°44'  

Dump ship's entire track history